Time;durP1;ratioP1;P1;durP2;ratioP2;P2;SDS_P1;SDS_P2;PMS_P1;PMS_P2;Temp;Humidity;BMP_temperature;BMP_pressure;BME280_temperature;BME280_humidity;BME280_pressure;Samples;Min_cycle;Max_cycle;Signal;HPM_P1;HPM_P2
2022/10/22 00:02:26;;;;;;;0.60;0.32;;;12.60;99.90;;;;;;4828967;29;20045;-93
2022/10/22 00:05:07;;;;;;;1.02;0.60;;;11.60;99.90;;;;;;4843421;29;20057;-93
2022/10/22 00:07:39;;;;;;;0.40;0.40;;;12.50;99.90;;;;;;4827641;29;20402;-93
2022/10/22 00:10:13;;;;;;;1.13;0.63;;;12.40;99.90;;;;;;4828263;29;20421;-93
2022/10/22 00:12:41;;;;;;;0.55;0.55;;;12.50;99.90;;;;;;4839497;29;20141;-93
2022/10/22 00:15:10;;;;;;;0.30;0.30;;;12.40;99.90;;;;;;4843069;29;20205;-92
2022/10/22 00:17:46;;;;;;;;;;;;;;;;;;;;;
2022/10/22 00:20:32;;;;;;;0.65;0.40;;;12.30;99.90;;;;;;4843224;29;20492;-93
2022/10/22 00:23:04;;;;;;;0.85;0.50;;;12.20;99.90;;;;;;4826112;29;20054;-92
2022/10/22 00:25:35;;;;;;;0.13;0.10;;;11.40;99.90;;;;;;4827939;29;20117;-94
2022/10/22 00:28:10;;;;;;;0.80;0.60;;;12.20;99.90;;;;;;4839943;29;20049;-93
2022/10/22 00:30:41;;;;;;;0.50;0.47;;;11.20;99.90;;;;;;4827312;29;20057;-91
2022/10/22 00:33:10;;;;;;;2.00;0.93;;;12.10;99.90;;;;;;4813763;29;20052;-93
2022/10/22 00:35:38;;;;;;;0.20;0.20;;;12.10;99.90;;;;;;4827191;29;20041;-92
2022/10/22 00:38:20;;;;;;;;;;;12.10;99.90;;;;;;4843676;29;20301;-93
2022/10/22 00:40:59;;;;;;;0.50;0.38;;;12.10;99.90;;;;;;4842618;29;19931;-93
2022/10/22 00:43:31;;;;;;;0.20;0.20;;;12.00;99.90;;;;;;4799160;29;20052;-94
2022/10/22 00:45:59;;;;;;;0.93;0.75;;;11.40;99.90;;;;;;4827978;29;20114;-93
2022/10/22 00:48:33;;;;;;;0.60;0.30;;;11.90;99.90;;;;;;4801066;29;20054;-93
2022/10/22 00:51:05;;;;;;;0.28;0.20;;;12.00;99.90;;;;;;4827960;29;20049;-93
2022/10/22 00:53:54;;;;;;;0.55;0.32;;;11.90;99.90;;;;;;4827327;29;20053;-94
2022/10/22 00:56:23;;;;;;;0.70;0.50;;;12.00;99.90;;;;;;4827134;29;20490;-91
2022/10/22 00:58:55;;;;;;;0.30;0.30;;;11.80;99.90;;;;;;4827757;29;20458;-93
2022/10/22 01:01:33;;;;;;;0.35;0.13;;;11.90;99.90;;;;;;4827564;29;20045;-91
2022/10/22 01:04:04;;;;;;;1.00;0.50;;;11.90;99.90;;;;;;4827800;29;20046;-93
2022/10/22 01:06:32;;;;;;;0.30;0.30;;;11.80;99.90;;;;;;4826948;29;20045;-93
2022/10/22 01:09:35;;;;;;;0.45;0.45;;;11.70;99.90;;;;;;4840395;29;20058;-93
2022/10/22 01:12:44;;;;;;;0.35;0.30;;;11.70;99.90;;;;;;4828380;29;20173;-93
2022/10/22 01:15:57;;;;;;;0.65;0.38;;;11.10;99.90;;;;;;4827920;29;20481;-93
2022/10/22 01:18:54;;;;;;;0.45;0.38;;;11.60;99.90;;;;;;4818940;29;20054;-93
2022/10/22 01:21:39;;;;;;;0.45;0.30;;;11.60;99.90;;;;;;4826811;29;20405;-93
2022/10/22 01:24:23;;;;;;;;;;;;;;;;;;;;;
2022/10/22 01:27:05;;;;;;;0.20;0.20;;;11.60;99.90;;;;;;4841263;29;20056;-93
2022/10/22 01:30:07;;;;;;;0.32;0.28;;;11.70;99.90;;;;;;4842170;29;20057;-93
2022/10/22 01:32:50;;;;;;;0.20;0.20;;;11.60;99.90;;;;;;4774311;29;20057;-93
2022/10/22 01:35:41;;;;;;;0.73;0.40;;;11.70;99.90;;;;;;4827769;29;20057;-93
2022/10/22 01:38:16;;;;;;;0.32;0.30;;;11.70;99.90;;;;;;4826475;29;20062;-93
2022/10/22 01:40:43;;;;;;;0.93;0.50;;;11.70;99.90;;;;;;4826836;29;20053;-93
2022/10/22 01:43:15;;;;;;;0.50;0.50;;;11.70;99.90;;;;;;4827187;29;20896;-93
2022/10/22 01:46:05;;;;;;;0.28;0.28;;;11.70;99.90;;;;;;4827039;29;20538;-92
2022/10/22 01:48:43;;;;;;;0.77;0.50;;;11.70;99.90;;;;;;4826581;29;20041;-94
2022/10/22 01:51:46;;;;;;;0.70;0.40;;;11.80;99.90;;;;;;4827489;29;20568;-93
2022/10/22 01:54:37;;;;;;;0.40;0.40;;;12.90;99.90;;;;;;4828748;29;20106;-93
2022/10/22 01:57:25;;;;;;;;;;;;;;;;;;;;;
2022/10/22 02:00:00;;;;;;;1.00;0.52;;;11.80;99.90;;;;;;4844263;29;20763;-93
2022/10/22 02:02:58;;;;;;;0.63;0.50;;;11.80;99.90;;;;;;4830207;29;20118;-91
2022/10/22 02:05:29;;;;;;;0.28;0.28;;;10.80;99.90;;;;;;4830174;29;20133;-93
2022/10/22 02:08:02;;;;;;;0.73;0.47;;;11.90;99.90;;;;;;4829812;29;20052;-94
2022/10/22 02:10:31;;;;;;;0.75;0.50;;;11.70;99.90;;;;;;4829929;29;20053;-92
2022/10/22 02:13:03;;;;;;;0.30;0.30;;;11.70;99.90;;;;;;4830061;29;20048;-94
2022/10/22 02:15:35;;;;;;;0.73;0.65;;;10.80;99.90;;;;;;4803396;29;20053;-91
2022/10/22 02:18:04;;;;;;;0.63;0.63;;;12.70;99.90;;;;;;4830354;29;20060;-93
2022/10/22 02:20:36;;;;;;;0.40;0.40;;;11.80;99.90;;;;;;4830165;29;20056;-93
2022/10/22 02:23:03;;;;;;;0.47;0.47;;;11.80;99.90;;;;;;4829773;29;20054;-93
2022/10/22 02:25:33;;;;;;;0.82;0.50;;;11.80;99.90;;;;;;4830050;29;20049;-94
2022/10/22 02:28:22;;;;;;;0.52;0.52;;;11.80;99.90;;;;;;4829772;29;20045;-92
2022/10/22 02:30:55;;;;;;;0.70;0.50;;;11.90;99.90;;;;;;4843923;29;20053;-93
2022/10/22 02:33:27;;;;;;;0.50;0.30;;;11.80;99.90;;;;;;4829685;29;20046;-94
2022/10/22 02:35:56;;;;;;;1.10;0.82;;;11.80;99.90;;;;;;4842454;29;20088;-93
2022/10/22 02:38:27;;;;;;;0.30;0.30;;;11.80;99.90;;;;;;4845331;29;20049;-92
2022/10/22 02:40:52;;;;;;;0.80;0.50;;;11.80;99.90;;;;;;4843818;29;20061;-92
2022/10/22 02:43:21;;;;;;;2.20;0.40;;;11.70;99.90;;;;;;4829414;29;20047;-93
2022/10/22 02:45:50;;;;;;;1.33;0.47;;;11.00;99.90;;;;;;4829285;29;20118;-94
2022/10/22 02:48:21;;;;;;;0.70;0.40;;;11.80;99.90;;;;;;4829655;29;20141;-93
2022/10/22 02:50:50;;;;;;;0.88;0.63;;;11.80;99.90;;;;;;4827357;29;20041;-93
2022/10/22 02:53:23;;;;;;;0.40;0.40;;;10.80;99.90;;;;;;4829627;29;20052;-93
2022/10/22 02:56:04;;;;;;;1.03;0.50;;;11.70;99.90;;;;;;4825948;29;20089;-92
2022/10/22 02:58:32;;;;;;;0.63;0.50;;;11.40;99.90;;;;;;4829267;29;20377;-92
2022/10/22 03:00:58;;;;;;;0.85;0.40;;;11.90;99.90;;;;;;4843991;29;20112;-93
2022/10/22 03:03:55;;;;;;;1.40;0.93;;;11.90;99.90;;;;;;4829288;29;20045;-93
2022/10/22 03:06:23;;;;;;;0.22;0.22;;;11.80;99.90;;;;;;4829542;29;20135;-93
2022/10/22 03:08:54;;;;;;;1.05;0.40;;;11.80;99.90;;;;;;4843728;29;20101;-92
2022/10/22 03:11:20;;;;;;;0.65;0.65;;;11.80;99.90;;;;;;4799864;29;20074;-93
2022/10/22 03:13:48;;;;;;;0.60;0.57;;;11.80;99.90;;;;;;4828489;29;20042;-93
2022/10/22 03:16:18;;;;;;;1.60;0.70;;;11.70;99.90;;;;;;4858657;29;20041;-93
2022/10/22 03:18:50;;;;;;;0.88;0.70;;;11.70;99.90;;;;;;4828034;29;20060;-93
2022/10/22 03:21:35;;;;;;;0.68;0.68;;;11.70;99.90;;;;;;4828998;29;20084;-92
2022/10/22 03:24:18;;;;;;;;;;;;;;;;;;;;;
2022/10/22 03:26:47;;;;;;;0.32;0.30;;;11.60;99.90;;;;;;4843612;29;20064;-93
2022/10/22 03:29:14;;;;;;;0.45;0.40;;;11.70;99.90;;;;;;4840349;29;20052;-92
2022/10/22 03:31:40;;;;;;;1.25;0.75;;;11.50;99.90;;;;;;4828885;29;20076;-92
2022/10/22 03:34:10;;;;;;;0.40;0.40;;;11.60;99.90;;;;;;4828367;29;20440;-92
2022/10/22 03:36:44;;;;;;;1.83;0.68;;;10.60;99.90;;;;;;4819237;29;20062;-92
2022/10/22 03:39:16;;;;;;;0.73;0.60;;;11.50;99.90;;;;;;4828671;29;20057;-92
2022/10/22 03:41:48;;;;;;;3.00;0.90;;;11.60;99.90;;;;;;4841773;29;20046;-92
2022/10/22 03:44:21;;;;;;;1.05;0.63;;;11.60;99.90;;;;;;4808755;29;20038;-89
2022/10/22 03:46:55;;;;;;;0.68;0.68;;;11.60;99.90;;;;;;4843120;29;20515;-93
2022/10/22 03:49:21;;;;;;;0.30;0.30;;;11.60;99.90;;;;;;4828372;29;20061;-93
2022/10/22 03:51:54;;;;;;;1.13;0.60;;;11.50;99.90;;;;;;4803527;29;20056;-92
2022/10/22 03:54:31;;;;;;;0.52;0.50;;;11.60;99.90;;;;;;4828914;29;20041;-92
2022/10/22 03:57:01;;;;;;;0.77;0.53;;;11.60;99.90;;;;;;4826187;29;20436;-92
2022/10/22 03:59:27;;;;;;;1.52;0.98;;;11.60;99.90;;;;;;4828619;29;20306;-92
2022/10/22 04:01:58;;;;;;;1.48;0.90;;;11.60;99.90;;;;;;4842502;29;20497;-92
2022/10/22 04:04:24;;;;;;;0.93;0.60;;;11.70;99.90;;;;;;4827985;29;20081;-92
2022/10/22 04:06:51;;;;;;;2.83;1.13;;;11.70;99.90;;;;;;4827800;29;20088;-92
2022/10/22 04:09:22;;;;;;;0.98;0.73;;;11.60;99.90;;;;;;4843209;29;20800;-91
2022/10/22 04:11:58;;;;;;;0.35;0.32;;;12.10;99.90;;;;;;4798507;29;20046;-90
2022/10/22 04:14:34;;;;;;;2.53;0.70;;;11.60;99.90;;;;;;4840982;29;20088;-93
2022/10/22 04:17:00;;;;;;;1.75;0.52;;;11.70;99.90;;;;;;4827182;29;20503;-91
2022/10/22 04:19:34;;;;;;;1.33;0.88;;;11.60;99.90;;;;;;4825556;29;20136;-92
2022/10/22 04:22:06;;;;;;;0.60;0.60;;;11.70;99.90;;;;;;4827144;29;20481;-93
2022/10/22 04:24:34;;;;;;;0.60;0.45;;;11.60;99.90;;;;;;4826804;29;20045;-93
2022/10/22 04:27:00;;;;;;;0.98;0.45;;;11.60;99.90;;;;;;4827303;29;20085;-91
2022/10/22 04:29:26;;;;;;;1.60;1.13;;;11.60;99.90;;;;;;4828003;29;20041;-93
2022/10/22 04:31:51;;;;;;;0.47;0.40;;;11.70;99.90;;;;;;4807242;29;20057;-90
2022/10/22 04:34:17;;;;;;;0.50;0.50;;;11.60;99.90;;;;;;4825637;29;20045;-92
2022/10/22 04:36:43;;;;;;;1.15;0.70;;;11.60;99.90;;;;;;4842740;29;20565;-93
2022/10/22 04:39:11;;;;;;;0.73;0.30;;;11.60;99.90;;;;;;4828035;29;20053;-93
2022/10/22 04:41:42;;;;;;;1.08;0.68;;;11.60;99.90;;;;;;4842896;29;20381;-93
2022/10/22 04:44:10;;;;;;;2.08;0.80;;;11.60;99.90;;;;;;4825635;29;20499;-93
2022/10/22 04:46:38;;;;;;;1.05;0.68;;;11.30;99.90;;;;;;4804606;29;20056;-93
2022/10/22 04:49:09;;;;;;;1.02;0.50;;;11.50;99.90;;;;;;4826904;29;20140;-92
2022/10/22 04:51:35;;;;;;;0.70;0.32;;;11.50;99.90;;;;;;4817666;29;20126;-94
2022/10/22 04:54:01;;;;;;;1.00;0.80;;;11.50;99.90;;;;;;4827195;29;20585;-93
2022/10/22 04:56:31;;;;;;;1.00;0.60;;;11.60;99.90;;;;;;4827305;29;20313;-93
2022/10/22 04:59:03;;;;;;;0.45;0.45;;;11.60;99.90;;;;;;4840540;29;20072;-92
2022/10/22 05:01:35;;;;;;;0.93;0.65;;;11.60;99.90;;;;;;4826641;29;20042;-93
2022/10/22 05:04:04;;;;;;;0.93;0.75;;;11.50;99.90;;;;;;4827281;29;20041;-92
2022/10/22 05:06:36;;;;;;;0.85;0.57;;;11.60;99.90;;;;;;4827537;29;20048;-93
2022/10/22 05:09:07;;;;;;;0.50;0.50;;;11.40;99.90;;;;;;4828013;29;20564;-93
2022/10/22 05:11:35;;;;;;;0.55;0.50;;;11.40;99.90;;;;;;4827839;29;20065;-93
2022/10/22 05:14:08;;;;;;;0.47;0.47;;;11.40;99.90;;;;;;4827585;29;20129;-93
2022/10/22 05:16:39;;;;;;;0.77;0.40;;;11.40;99.90;;;;;;4827750;29;20052;-93
2022/10/22 05:19:07;;;;;;;0.90;0.40;;;11.50;99.90;;;;;;4826791;29;20049;-92
2022/10/22 05:21:36;;;;;;;1.48;0.77;;;11.40;99.90;;;;;;4827403;29;20041;-94
2022/10/22 05:24:05;;;;;;;2.00;1.10;;;11.40;99.90;;;;;;4827306;29;20062;-93
2022/10/22 05:26:32;;;;;;;0.60;0.30;;;11.40;99.90;;;;;;4811937;29;20046;-91
2022/10/22 05:29:00;;;;;;;0.80;0.70;;;11.40;99.90;;;;;;4842949;29;20053;-91
2022/10/22 05:31:27;;;;;;;0.50;0.50;;;11.40;99.90;;;;;;4830278;29;20049;-93
2022/10/22 05:33:53;;;;;;;;;;;11.40;99.90;;;;;;4831171;29;20109;-93
2022/10/22 05:36:25;;;;;;;0.52;0.50;;;11.40;99.90;;;;;;4829527;29;20000;-92
2022/10/22 05:38:50;;;;;;;1.60;0.60;;;11.20;99.90;;;;;;4830758;29;20065;-93
2022/10/22 05:41:23;;;;;;;0.95;0.55;;;11.40;99.90;;;;;;4830589;29;20049;-93
2022/10/22 05:43:50;;;;;;;0.75;0.75;;;11.40;99.90;;;;;;4830795;29;20069;-93
2022/10/22 05:46:19;;;;;;;0.98;0.47;;;11.40;99.90;;;;;;4829123;29;20037;-94
2022/10/22 05:48:52;;;;;;;1.27;0.65;;;11.40;99.90;;;;;;4843543;29;20229;-92
2022/10/22 05:51:24;;;;;;;1.75;0.85;;;11.40;99.90;;;;;;4828618;29;20046;-93
2022/10/22 05:54:01;;;;;;;0.60;0.50;;;11.50;99.90;;;;;;4830435;29;20046;-93
2022/10/22 05:56:28;;;;;;;0.73;0.57;;;11.40;99.90;;;;;;4829829;29;20065;-93
2022/10/22 05:58:59;;;;;;;1.10;0.98;;;11.60;99.90;;;;;;4830186;29;20054;-91
2022/10/22 06:01:31;;;;;;;0.80;0.80;;;11.50;99.90;;;;;;4828007;29;20054;-93
2022/10/22 06:04:02;;;;;;;0.40;0.40;;;11.60;99.90;;;;;;4845598;29;20050;-91
2022/10/22 06:06:42;;;;;;;1.23;0.80;;;11.60;99.90;;;;;;4830164;29;20124;-94
2022/10/22 06:09:22;;;;;;;1.10;0.60;;;11.10;99.90;;;;;;4841581;29;20054;-92
2022/10/22 06:11:51;;;;;;;1.17;0.40;;;11.50;99.90;;;;;;4841479;29;20042;-93
2022/10/22 06:14:18;;;;;;;0.30;0.30;;;11.60;99.90;;;;;;4830308;29;20106;-93
2022/10/22 06:16:44;;;;;;;0.65;0.65;;;11.50;99.90;;;;;;4845649;29;20516;-93
2022/10/22 06:19:12;;;;;;;0.85;0.63;;;11.60;99.90;;;;;;4829384;29;20068;-93
2022/10/22 06:21:38;;;;;;;0.98;0.70;;;11.60;99.90;;;;;;4829931;29;20059;-94
2022/10/22 06:24:04;;;;;;;0.00;0.00;;;11.70;99.90;;;;;;4814876;29;20054;-93
2022/10/22 06:26:30;;;;;;;0.60;0.60;;;11.60;99.90;;;;;;4800717;29;20057;-93
2022/10/22 06:28:58;;;;;;;1.02;0.93;;;11.60;99.90;;;;;;4844602;29;20045;-93
2022/10/22 06:31:26;;;;;;;1.02;0.70;;;11.70;99.90;;;;;;4800030;29;20053;-93
2022/10/22 06:33:52;;;;;;;1.25;0.80;;;11.70;99.90;;;;;;4829997;29;20049;-95
2022/10/22 06:36:23;;;;;;;1.02;0.68;;;11.70;99.90;;;;;;4829741;29;20117;-93
2022/10/22 06:38:55;;;;;;;1.05;0.55;;;11.80;99.90;;;;;;4842599;29;20049;-94
2022/10/22 06:41:29;;;;;;;1.05;0.40;;;11.70;99.90;;;;;;4813490;29;20084;-94
2022/10/22 06:44:02;;;;;;;0.52;0.35;;;11.70;99.90;;;;;;4843582;29;20117;-93
2022/10/22 06:46:31;;;;;;;0.40;0.40;;;11.80;99.90;;;;;;4802319;29;20609;-93
2022/10/22 06:49:04;;;;;;;1.35;0.60;;;11.50;99.90;;;;;;4843719;29;20058;-94
2022/10/22 06:51:33;;;;;;;1.52;0.77;;;11.90;99.90;;;;;;4828437;29;20084;-92
2022/10/22 06:53:59;;;;;;;1.42;0.80;;;11.80;99.90;;;;;;4827596;29;20132;-93
2022/10/22 06:56:26;;;;;;;0.75;0.73;;;11.80;99.90;;;;;;4828304;29;20125;-86
2022/10/22 06:58:54;;;;;;;1.02;0.70;;;11.90;99.90;;;;;;4843961;29;20060;-85
2022/10/22 07:01:25;;;;;;;0.63;0.63;;;12.00;99.90;;;;;;4825880;29;20061;-88
2022/10/22 07:03:52;;;;;;;0.68;0.40;;;12.10;99.90;;;;;;4828883;29;20056;-88
2022/10/22 07:06:21;;;;;;;;;;;12.30;99.90;;;;;;4826859;29;20045;-87
2022/10/22 07:09:13;;;;;;;0.50;0.32;;;12.40;99.90;;;;;;4829617;29;20447;-87
2022/10/22 07:11:44;;;;;;;0.40;0.38;;;12.30;99.90;;;;;;4829854;29;20421;-87
2022/10/22 07:14:11;;;;;;;0.55;0.40;;;12.30;99.90;;;;;;4830488;29;20045;-87
2022/10/22 07:16:36;;;;;;;0.50;0.50;;;12.40;99.90;;;;;;4830019;29;20045;-88
2022/10/22 07:19:04;;;;;;;0.90;0.30;;;11.60;99.90;;;;;;4815132;29;20095;-87
2022/10/22 07:21:30;;;;;;;0.70;0.70;;;12.40;99.90;;;;;;4807985;29;20141;-88
2022/10/22 07:23:58;;;;;;;;;;;12.30;99.90;;;;;;4814338;29;21492;-87
2022/10/22 07:26:24;;;;;;;;;;;11.70;99.90;;;;;;4829082;29;19924;-89
2022/10/22 07:28:52;;;;;;;0.40;0.30;;;12.40;99.90;;;;;;4828658;29;20359;-89
2022/10/22 07:31:25;;;;;;;0.30;0.30;;;12.40;99.90;;;;;;4843052;29;20060;-89
2022/10/22 07:33:53;;;;;;;0.20;0.20;;;12.50;99.90;;;;;;4828831;29;20058;-89
2022/10/22 07:36:22;;;;;;;0.30;0.30;;;12.60;99.90;;;;;;4843138;29;20161;-89
2022/10/22 07:38:54;;;;;;;1.65;0.63;;;12.60;99.90;;;;;;4847793;29;20049;-90
2022/10/22 07:41:26;;;;;;;0.68;0.32;;;12.60;99.90;;;;;;4834190;29;20049;-90
2022/10/22 07:43:57;;;;;;;0.28;0.28;;;12.30;99.90;;;;;;4833467;29;20048;-90
2022/10/22 07:46:24;;;;;;;0.40;0.30;;;12.70;99.90;;;;;;4846448;29;20045;-89
2022/10/22 07:48:52;;;;;;;0.90;0.38;;;12.70;99.90;;;;;;4821550;29;20041;-89
2022/10/22 07:51:27;;;;;;;0.28;0.28;;;12.70;99.90;;;;;;4826664;29;20053;-90
2022/10/22 07:53:53;;;;;;;0.82;0.82;;;12.70;99.90;;;;;;4813237;29;20042;-90
2022/10/22 07:56:24;;;;;;;0.30;0.20;;;12.70;99.90;;;;;;4842779;29;20045;-90
2022/10/22 07:58:50;;;;;;;0.65;0.57;;;12.80;99.90;;;;;;4799156;29;20106;-91
2022/10/22 08:01:16;;;;;;;1.00;0.70;;;12.80;99.90;;;;;;4828381;29;20041;-87
2022/10/22 08:03:44;;;;;;;1.08;0.60;;;12.60;99.90;;;;;;4830436;29;20321;-89
2022/10/22 08:06:13;;;;;;;0.70;0.52;;;12.80;99.90;;;;;;4824162;29;20072;-87
2022/10/22 08:08:44;;;;;;;0.13;0.10;;;12.80;99.90;;;;;;4832002;29;20373;-88
2022/10/22 08:11:12;;;;;;;1.80;0.43;;;12.80;99.90;;;;;;4848563;29;20057;-88
2022/10/22 08:13:38;;;;;;;0.95;0.70;;;12.80;99.90;;;;;;4836459;29;20120;-88
2022/10/22 08:16:04;;;;;;;0.53;0.30;;;12.90;99.90;;;;;;4835826;29;20136;-88
2022/10/22 08:18:30;;;;;;;0.30;0.30;;;13.00;99.90;;;;;;4835596;29;20294;-89
2022/10/22 08:20:58;;;;;;;0.87;0.60;;;13.10;99.90;;;;;;4856742;29;20041;-88
2022/10/22 08:23:24;;;;;;;0.80;0.20;;;13.20;99.90;;;;;;4854026;29;20045;-89
2022/10/22 08:25:53;;;;;;;0.17;0.17;;;13.30;99.90;;;;;;4832898;29;20101;-89
2022/10/22 08:28:24;;;;;;;0.20;0.20;;;13.30;99.90;;;;;;4827864;29;20086;-91
2022/10/22 08:30:50;;;;;;;0.13;0.13;;;13.40;99.90;;;;;;4812218;29;20046;-90
2022/10/22 08:33:28;;;;;;;;;;;;;;;;;;;;;
2022/10/22 08:35:56;;;;;;;1.45;0.47;;;13.60;99.90;;;;;;4860811;29;20053;-89
2022/10/22 08:38:30;;;;;;;0.22;0.22;;;12.90;99.90;;;;;;4847008;29;20060;-93
2022/10/22 08:41:10;;;;;;;0.28;0.28;;;13.70;99.90;;;;;;4832738;29;20045;-90
2022/10/22 08:44:00;;;;;;;0.55;0.55;;;13.80;99.90;;;;;;4832023;29;20046;-89
2022/10/22 08:47:01;;;;;;;0.63;0.30;;;14.90;99.90;;;;;;4846327;29;20100;-90
2022/10/22 08:49:37;;;;;;;0.65;0.35;;;14.10;99.90;;;;;;4797309;29;20061;-89
2022/10/22 08:52:05;;;;;;;0.80;0.25;;;14.10;99.90;;;;;;4838549;29;20104;-89
2022/10/22 08:54:43;;;;;;;0.25;0.17;;;14.30;99.90;;;;;;4827604;29;20081;-91
2022/10/22 08:57:14;;;;;;;0.10;0.10;;;14.30;99.90;;;;;;4840781;29;20064;-90
2022/10/22 08:59:57;;;;;;;1.23;0.68;;;14.40;99.90;;;;;;4827331;29;20082;-90
2022/10/22 09:02:55;;;;;;;0.90;0.50;;;14.40;99.90;;;;;;4843604;29;20049;-90
2022/10/22 09:05:35;;;;;;;0.30;0.25;;;14.50;99.90;;;;;;4837660;29;20378;-90
2022/10/22 09:08:04;;;;;;;0.28;0.22;;;14.50;99.90;;;;;;4831124;29;20053;-88
2022/10/22 09:10:39;;;;;;;0.90;0.30;;;14.60;99.90;;;;;;4831402;29;20097;-88
2022/10/22 09:13:05;;;;;;;0.38;0.22;;;14.60;99.90;;;;;;4830871;29;20053;-87
2022/10/22 09:15:39;;;;;;;0.22;0.20;;;14.60;99.90;;;;;;4830680;29;20386;-90
2022/10/22 09:18:16;;;;;;;0.43;0.30;;;14.70;99.90;;;;;;4823631;29;20514;-88
2022/10/22 09:20:54;;;;;;;0.30;0.30;;;14.80;99.90;;;;;;4845858;29;20041;-89
2022/10/22 09:23:32;;;;;;;0.20;0.20;;;14.80;99.90;;;;;;4846017;29;20110;-88
2022/10/22 09:26:03;;;;;;;0.25;0.20;;;15.00;99.90;;;;;;4846110;29;20527;-87
2022/10/22 09:28:30;;;;;;;0.28;0.28;;;15.90;99.90;;;;;;4842920;29;20136;-92
2022/10/22 09:30:59;;;;;;;0.35;0.35;;;15.20;99.90;;;;;;4846030;29;20522;-87
2022/10/22 09:33:30;;;;;;;0.90;0.30;;;15.20;99.90;;;;;;4808738;29;20396;-87
2022/10/22 09:36:07;;;;;;;0.20;0.20;;;15.20;99.90;;;;;;4830918;29;20045;-87
2022/10/22 09:38:47;;;;;;;0.70;0.20;;;15.20;99.90;;;;;;4831166;29;20049;-86
2022/10/22 09:41:16;;;;;;;0.30;0.10;;;15.20;99.90;;;;;;4830629;29;20041;-87
2022/10/22 09:43:41;;;;;;;0.43;0.35;;;15.10;99.90;;;;;;4809111;29;20053;-87
2022/10/22 09:46:16;;;;;;;0.30;0.30;;;15.20;99.90;;;;;;4845937;29;20116;-86
2022/10/22 09:48:47;;;;;;;0.20;0.10;;;15.10;99.90;;;;;;4845659;29;20046;-86
2022/10/22 09:51:22;;;;;;;0.35;0.35;;;15.10;99.90;;;;;;4845839;29;20049;-86
2022/10/22 09:54:01;;;;;;;0.35;0.20;;;15.10;99.90;;;;;;4829912;29;20054;-86
2022/10/22 09:56:32;;;;;;;0.40;0.40;;;15.00;99.90;;;;;;4830181;29;20053;-86
2022/10/22 09:58:57;;;;;;;0.10;0.10;;;15.00;99.90;;;;;;4830074;29;20053;-86
2022/10/22 10:01:32;;;;;;;0.85;0.38;;;14.90;99.90;;;;;;4845470;29;20084;-87
2022/10/22 10:04:15;;;;;;;0.30;0.20;;;15.00;99.90;;;;;;4845056;29;20101;-85
2022/10/22 10:06:50;;;;;;;0.55;0.25;;;14.90;99.90;;;;;;4845141;29;20397;-88
2022/10/22 10:09:19;;;;;;;0.52;0.30;;;14.90;99.90;;;;;;4830181;29;20152;-87
2022/10/22 10:12:12;;;;;;;0.55;0.20;;;14.80;99.90;;;;;;4829491;29;20045;-87
2022/10/22 10:14:52;;;;;;;0.10;0.10;;;14.90;99.90;;;;;;4829184;29;20104;-86
2022/10/22 10:17:43;;;;;;;0.28;0.10;;;14.90;99.90;;;;;;4830236;29;20049;-86
2022/10/22 10:20:54;;;;;;;0.20;0.20;;;14.80;99.90;;;;;;4830173;29;20088;-84
2022/10/22 10:23:29;;;;;;;0.85;0.40;;;14.80;99.90;;;;;;4816785;29;20386;-84
2022/10/22 10:26:05;;;;;;;0.70;0.68;;;14.80;99.90;;;;;;4830776;29;20057;-84
2022/10/22 10:28:52;;;;;;;0.30;0.30;;;14.90;99.90;;;;;;4846291;29;20136;-84
2022/10/22 10:31:33;;;;;;;0.40;0.40;;;14.90;99.90;;;;;;4846430;29;20569;-84
2022/10/22 10:34:24;;;;;;;0.50;0.30;;;14.90;99.90;;;;;;4845881;29;20417;-84
2022/10/22 10:37:02;;;;;;;0.55;0.40;;;14.90;99.90;;;;;;4845841;29;20442;-84
2022/10/22 10:39:42;;;;;;;0.70;0.70;;;15.00;99.90;;;;;;4846359;29;20497;-83
2022/10/22 10:42:54;;;;;;;1.17;0.60;;;15.00;99.90;;;;;;4831192;29;20401;-84
2022/10/22 10:45:47;;;;;;;0.63;0.30;;;15.10;99.90;;;;;;4845978;29;20509;-84
2022/10/22 10:48:31;;;;;;;0.47;0.30;;;15.20;99.90;;;;;;4845988;29;20053;-84
2022/10/22 10:51:24;;;;;;;0.28;0.20;;;15.20;99.90;;;;;;4830559;29;20049;-84
2022/10/22 10:54:15;;;;;;;0.85;0.50;;;15.20;99.90;;;;;;4830557;29;20141;-84
2022/10/22 10:56:54;;;;;;;0.63;0.40;;;15.20;99.90;;;;;;4830449;29;20144;-85
2022/10/22 10:59:41;;;;;;;0.25;0.10;;;15.20;99.90;;;;;;4845881;29;20513;-84
2022/10/22 11:02:30;;;;;;;0.47;0.30;;;15.20;99.90;;;;;;4830818;29;20501;-84
2022/10/22 11:05:23;;;;;;;0.20;0.20;;;15.20;99.90;;;;;;4829893;29;20062;-84
2022/10/22 11:07:55;;;;;;;0.40;0.32;;;15.10;99.90;;;;;;4830364;29;20144;-86
2022/10/22 11:10:24;;;;;;;0.80;0.40;;;15.10;99.90;;;;;;4830877;29;20132;-84
2022/10/22 11:12:54;;;;;;;0.30;0.30;;;15.10;99.90;;;;;;4830309;29;20568;-84
2022/10/22 11:15:28;;;;;;;0.32;0.32;;;15.10;99.90;;;;;;4830490;29;20050;-83
2022/10/22 11:17:58;;;;;;;0.32;0.22;;;15.10;99.90;;;;;;4845470;29;20056;-84
2022/10/22 11:20:47;;;;;;;0.45;0.35;;;15.10;99.90;;;;;;4846063;29;20132;-84
2022/10/22 11:23:18;;;;;;;0.22;0.22;;;15.10;99.90;;;;;;4826443;29;20050;-83
2022/10/22 11:25:47;;;;;;;0.60;0.60;;;15.10;99.90;;;;;;4829739;29;20053;-85
2022/10/22 11:28:18;;;;;;;0.65;0.63;;;15.10;99.90;;;;;;4830395;29;20136;-83
2022/10/22 11:30:50;;;;;;;0.35;0.20;;;15.10;99.90;;;;;;4829947;29;20140;-85
2022/10/22 11:33:20;;;;;;;0.57;0.32;;;15.10;99.90;;;;;;4845521;29;20053;-83
2022/10/22 11:35:47;;;;;;;0.52;0.45;;;15.10;99.90;;;;;;4829956;29;20042;-84
2022/10/22 11:38:24;;;;;;;0.35;0.25;;;15.10;99.90;;;;;;4829899;29;20065;-84
2022/10/22 11:41:01;;;;;;;1.13;0.60;;;15.10;99.90;;;;;;4845008;29;20105;-84
2022/10/22 11:43:58;;;;;;;0.38;0.38;;;14.80;99.90;;;;;;4845393;29;20045;-84
2022/10/22 11:46:54;;;;;;;0.30;0.30;;;15.10;99.90;;;;;;4830142;29;20056;-84
2022/10/22 11:49:45;;;;;;;0.40;0.40;;;15.20;99.90;;;;;;4826683;29;20342;-84
2022/10/22 11:52:39;;;;;;;0.93;0.40;;;15.50;99.90;;;;;;4825549;29;20090;-84
2022/10/22 11:55:31;;;;;;;0.52;0.52;;;15.80;99.90;;;;;;4829415;29;20481;-84
2022/10/22 11:57:59;;;;;;;0.35;0.32;;;15.80;99.90;;;;;;4829557;29;20409;-84
2022/10/22 12:00:34;;;;;;;0.38;0.35;;;15.90;99.90;;;;;;4844906;29;20053;-83
2022/10/22 12:03:22;;;;;;;1.30;0.57;;;16.00;99.90;;;;;;4844324;29;20610;-84
2022/10/22 12:06:01;;;;;;;0.50;0.32;;;16.00;99.90;;;;;;4844506;29;20049;-88
2022/10/22 12:08:27;;;;;;;0.82;0.50;;;16.00;99.90;;;;;;4844962;29;20053;-84
2022/10/22 12:11:13;;;;;;;0.47;0.35;;;15.90;99.90;;;;;;4829363;29;20083;-84
2022/10/22 12:14:06;;;;;;;0.43;0.40;;;15.90;99.90;;;;;;4844785;29;20078;-84
2022/10/22 12:16:32;;;;;;;0.28;0.28;;;15.80;99.90;;;;;;4844743;29;20049;-84
2022/10/22 12:19:13;;;;;;;0.63;0.60;;;15.60;99.90;;;;;;4829308;29;20093;-84
2022/10/22 12:21:42;;;;;;;0.50;0.50;;;15.50;99.90;;;;;;4844398;29;20070;-85
2022/10/22 12:24:14;;;;;;;0.50;0.50;;;15.40;99.90;;;;;;4844146;29;20525;-85
2022/10/22 12:26:39;;;;;;;0.38;0.38;;;15.30;99.90;;;;;;4844732;29;20057;-84
2022/10/22 12:29:10;;;;;;;0.40;0.40;;;15.20;99.90;;;;;;4829187;29;20053;-84
2022/10/22 12:31:38;;;;;;;0.88;0.65;;;15.20;99.90;;;;;;4844597;29;20375;-84
2022/10/22 12:34:04;;;;;;;0.40;0.40;;;15.10;99.90;;;;;;4844141;29;20049;-84
2022/10/22 12:36:33;;;;;;;0.55;0.40;;;15.10;99.90;;;;;;4843856;29;20057;-84
2022/10/22 12:39:11;;;;;;;0.80;0.40;;;15.00;99.90;;;;;;4844182;29;20054;-85
2022/10/22 12:41:37;;;;;;;;;;;15.00;99.90;;;;;;4830026;29;20045;-84
2022/10/22 12:44:04;;;;;;;0.93;0.70;;;14.90;99.90;;;;;;4843643;29;20376;-84
2022/10/22 12:46:33;;;;;;;0.40;0.30;;;14.90;99.90;;;;;;4844156;29;20658;-85
2022/10/22 12:49:00;;;;;;;0.57;0.45;;;14.90;99.90;;;;;;4844080;29;20049;-84
2022/10/22 12:51:27;;;;;;;0.10;0.10;;;14.90;99.90;;;;;;4829269;29;20411;-83
2022/10/22 12:54:00;;;;;;;0.57;0.43;;;14.90;99.90;;;;;;4829015;29;20101;-83
2022/10/22 12:56:32;;;;;;;0.43;0.43;;;14.90;99.90;;;;;;4844223;29;20053;-84
2022/10/22 12:59:02;;;;;;;0.85;0.65;;;14.90;99.90;;;;;;4843433;29;20049;-83
2022/10/22 13:01:36;;;;;;;0.63;0.43;;;14.80;99.90;;;;;;4844422;29;20050;-83
2022/10/22 13:04:19;;;;;;;0.77;0.50;;;14.80;99.90;;;;;;4843873;29;20049;-84
2022/10/22 13:07:03;;;;;;;0.25;0.25;;;14.90;99.90;;;;;;4844315;29;20090;-84
2022/10/22 13:09:37;;;;;;;0.20;0.20;;;15.00;99.90;;;;;;4858414;29;20404;-86
2022/10/22 13:12:04;;;;;;;1.35;0.47;;;15.10;99.90;;;;;;4849274;29;20082;-87
2022/10/22 13:14:32;;;;;;;1.05;0.30;;;15.10;99.90;;;;;;4861422;29;20041;-86
2022/10/22 13:17:02;;;;;;;0.30;0.30;;;15.20;99.90;;;;;;4850862;29;20488;-86
2022/10/22 13:19:37;;;;;;;0.63;0.50;;;15.30;99.90;;;;;;4837011;29;20045;-86
2022/10/22 13:22:03;;;;;;;0.40;0.40;;;15.30;99.90;;;;;;4853776;29;20461;-87
2022/10/22 13:24:29;;;;;;;0.82;0.30;;;15.30;99.90;;;;;;4847576;29;20037;-87
2022/10/22 13:26:56;;;;;;;0.43;0.32;;;15.20;99.90;;;;;;4823315;29;20053;-87
2022/10/22 13:29:23;;;;;;;;;;;15.30;99.90;;;;;;4850878;29;20123;-86
2022/10/22 13:31:52;;;;;;;0.10;0.10;;;15.30;99.90;;;;;;4853153;29;19924;-86